Time;durP1;ratioP1;P1;durP2;ratioP2;P2;SDS_P1;SDS_P2;PMS_P1;PMS_P2;Temp;Humidity;BMP_temperature;BMP_pressure;BME280_temperature;BME280_humidity;BME280_pressure;Samples;Min_cycle;Max_cycle;Signal;HPM_P1;HPM_P2
2021/08/24 00:01:16;;;;;;;5.47;4.57;;;19.70;80.50;;;;;;5029098;28;20194;-88
2021/08/24 00:03:43;;;;;;;5.43;4.93;;;19.70;80.30;;;;;;5006094;28;20189;-87
2021/08/24 00:06:09;;;;;;;6.45;5.68;;;19.80;80.20;;;;;;4999668;28;20190;-87
2021/08/24 00:08:41;;;;;;;5.30;4.82;;;19.70;80.10;;;;;;5013010;28;20359;-87
2021/08/24 00:11:09;;;;;;;5.95;5.50;;;19.80;80.30;;;;;;5007860;28;20217;-87
2021/08/24 00:13:36;;;;;;;5.10;4.70;;;19.70;80.60;;;;;;5016292;28;20803;-87
2021/08/24 00:16:01;;;;;;;5.32;4.90;;;19.80;80.40;;;;;;5017690;28;20182;-87
2021/08/24 00:18:27;;;;;;;5.00;4.60;;;19.80;79.90;;;;;;5033012;28;20224;-87
2021/08/24 00:20:54;;;;;;;5.72;5.25;;;19.80;79.90;;;;;;5014398;28;20201;-88
2021/08/24 00:23:23;;;;;;;5.72;5.15;;;19.80;79.80;;;;;;5016204;28;20217;-89
2021/08/24 00:25:51;;;;;;;5.30;4.90;;;19.90;79.80;;;;;;5015414;28;20257;-87
2021/08/24 00:28:17;;;;;;;5.32;4.82;;;19.90;80.00;;;;;;5015887;28;20260;-88
2021/08/24 00:30:43;;;;;;;5.97;5.28;;;19.90;79.60;;;;;;5015193;28;20657;-89
2021/08/24 00:33:12;;;;;;;5.60;5.05;;;19.80;79.80;;;;;;5015105;28;20216;-87
2021/08/24 00:35:40;;;;;;;6.32;5.80;;;19.80;80.60;;;;;;5012967;28;20203;-87
2021/08/24 00:38:11;;;;;;;5.57;4.80;;;19.70;80.30;;;;;;5015483;28;20272;-87
2021/08/24 00:40:38;;;;;;;5.90;5.32;;;19.60;80.90;;;;;;5015988;28;20194;-87
2021/08/24 00:43:06;;;;;;;6.00;5.20;;;19.50;81.60;;;;;;5014518;28;20217;-87
2021/08/24 00:45:35;;;;;;;5.80;5.30;;;19.50;81.90;;;;;;5014543;28;20201;-88
2021/08/24 00:48:00;;;;;;;5.90;5.40;;;19.50;82.00;;;;;;5016254;28;20315;-90
2021/08/24 00:50:32;;;;;;;6.47;5.97;;;19.40;81.90;;;;;;5014894;28;20186;-87
2021/08/24 00:53:02;;;;;;;6.03;5.53;;;19.20;82.70;;;;;;5015845;28;20223;-88
2021/08/24 00:55:28;;;;;;;6.18;5.60;;;19.20;82.90;;;;;;5004687;28;20225;-87
2021/08/24 00:58:01;;;;;;;6.30;5.70;;;19.10;83.40;;;;;;5016401;28;20181;-87
2021/08/24 01:00:31;;;;;;;6.38;5.72;;;19.10;83.70;;;;;;5015058;28;20265;-87
2021/08/24 01:03:00;;;;;;;6.43;5.80;;;19.10;83.40;;;;;;5018197;28;20216;-87
2021/08/24 01:05:27;;;;;;;6.38;5.88;;;19.00;83.90;;;;;;5030060;28;20211;-87
2021/08/24 01:08:20;;;;;;;5.90;5.40;;;19.00;84.00;;;;;;5018155;28;20189;-91
2021/08/24 01:10:57;;;;;;;6.10;5.53;;;19.00;83.90;;;;;;5033787;28;20201;-93
2021/08/24 01:13:34;;;;;;;6.03;5.63;;;19.10;83.60;;;;;;5022061;28;20256;-88
2021/08/24 01:16:26;;;;;;;7.30;5.63;;;19.10;83.20;;;;;;5026344;28;20208;-88
2021/08/24 01:19:12;;;;;;;6.03;5.43;;;19.10;83.40;;;;;;5023682;28;20188;-90
2021/08/24 01:22:15;;;;;;;6.15;5.57;;;19.00;83.60;;;;;;5018728;28;20340;-87
2021/08/24 01:24:55;;;;;;;5.78;5.28;;;19.10;83.70;;;;;;5020234;28;20676;-88
2021/08/24 01:27:50;;;;;;;5.22;4.82;;;19.00;83.50;;;;;;5015482;28;20193;-87
2021/08/24 01:30:40;;;;;;;6.13;5.47;;;19.00;83.20;;;;;;5015031;28;20672;-90
2021/08/24 01:33:43;;;;;;;5.03;4.43;;;19.00;83.00;;;;;;5015233;28;20315;-88
2021/08/24 01:36:27;;;;;;;5.38;4.97;;;19.10;82.90;;;;;;4989527;28;20209;-88
2021/08/24 01:39:09;;;;;;;5.70;5.20;;;19.00;82.80;;;;;;5011825;28;20451;-87
2021/08/24 01:41:54;;;;;;;6.07;5.57;;;18.90;82.50;;;;;;5016290;28;20217;-88
2021/08/24 01:44:23;;;;;;;5.60;5.20;;;18.90;82.90;;;;;;5021237;28;20162;-87
2021/08/24 01:47:05;;;;;;;5.85;5.40;;;18.90;82.60;;;;;;5021021;28;20200;-89
2021/08/24 01:49:38;;;;;;;5.82;5.20;;;18.80;82.50;;;;;;5021432;28;20213;-89
2021/08/24 01:52:08;;;;;;;5.68;5.18;;;18.80;83.10;;;;;;5024703;28;20366;-87
2021/08/24 01:54:49;;;;;;;5.47;4.97;;;18.80;83.00;;;;;;5032605;28;20187;-88
2021/08/24 01:57:20;;;;;;;4.97;4.55;;;18.70;83.10;;;;;;5038609;28;20184;-87
2021/08/24 01:59:59;;;;;;;6.45;5.00;;;18.60;83.20;;;;;;5030407;28;20218;-87
2021/08/24 02:02:31;;;;;;;5.78;5.28;;;18.70;82.80;;;;;;5028714;28;20205;-87
2021/08/24 02:05:21;;;;;;;5.10;4.80;;;18.70;82.40;;;;;;5031676;28;20189;-88
2021/08/24 02:07:51;;;;;;;4.97;4.57;;;18.80;81.50;;;;;;5006843;28;20753;-87
2021/08/24 02:10:20;;;;;;;5.22;4.72;;;18.70;81.70;;;;;;5023913;28;20691;-87
2021/08/24 02:12:48;;;;;;;5.25;4.85;;;18.60;80.50;;;;;;5022366;28;20227;-88
2021/08/24 02:15:17;;;;;;;5.93;4.50;;;18.60;81.40;;;;;;5024295;28;20186;-87
2021/08/24 02:17:46;;;;;;;4.70;4.30;;;18.60;81.10;;;;;;5039342;28;20344;-87
2021/08/24 02:20:20;;;;;;;4.57;4.28;;;18.50;81.30;;;;;;5024914;28;20961;-87
2021/08/24 02:22:50;;;;;;;4.80;4.38;;;18.40;81.80;;;;;;5034353;28;20200;-90
2021/08/24 02:25:25;;;;;;;8.60;4.78;;;18.30;81.90;;;;;;5028548;28;20200;-87
2021/08/24 02:28:12;;;;;;;6.45;4.32;;;18.30;82.40;;;;;;5022292;28;20221;-88
2021/08/24 02:31:05;;;;;;;4.60;4.30;;;18.30;82.80;;;;;;5023792;28;20188;-88
2021/08/24 02:33:39;;;;;;;5.40;4.90;;;18.30;82.20;;;;;;5007961;28;20232;-88
2021/08/24 02:36:09;;;;;;;4.47;4.13;;;18.20;82.20;;;;;;5024955;28;20203;-87
2021/08/24 02:38:37;;;;;;;5.30;4.75;;;18.20;82.20;;;;;;5023035;28;20213;-87
2021/08/24 02:41:17;;;;;;;5.72;4.93;;;18.20;82.40;;;;;;5021691;28;20676;-87
2021/08/24 02:44:04;;;;;;;4.80;4.30;;;18.10;82.70;;;;;;5023818;28;20220;-88
2021/08/24 02:46:35;;;;;;;5.03;4.53;;;18.10;82.50;;;;;;5023033;28;20231;-87
2021/08/24 02:49:08;;;;;;;5.20;4.80;;;18.10;82.80;;;;;;5022897;28;20213;-87
2021/08/24 02:51:34;;;;;;;4.68;4.30;;;18.00;82.50;;;;;;5022815;28;20297;-88
2021/08/24 02:54:22;;;;;;;4.75;4.35;;;18.10;83.30;;;;;;5023046;28;20181;-88
2021/08/24 02:56:47;;;;;;;10.07;4.90;;;18.20;82.20;;;;;;5024052;28;20178;-87
2021/08/24 02:59:13;;;;;;;5.03;4.63;;;18.20;82.20;;;;;;5026053;28;20193;-87
2021/08/24 03:01:39;;;;;;;5.53;4.50;;;18.30;81.70;;;;;;5025561;28;20277;-87
2021/08/24 03:04:07;;;;;;;5.07;4.68;;;18.20;82.60;;;;;;5023209;28;20645;-87
2021/08/24 03:06:37;;;;;;;5.22;4.80;;;18.20;82.10;;;;;;5026146;28;20250;-88
2021/08/24 03:09:03;;;;;;;5.75;4.70;;;18.10;82.60;;;;;;5022157;28;20216;-88
2021/08/24 03:11:34;;;;;;;5.05;4.65;;;18.10;82.20;;;;;;5020602;28;20212;-87
2021/08/24 03:14:11;;;;;;;5.55;5.05;;;18.10;82.50;;;;;;5029670;28;20249;-88
2021/08/24 03:16:40;;;;;;;4.80;4.40;;;18.10;82.10;;;;;;5018803;28;20182;-87
2021/08/24 03:19:11;;;;;;;4.93;4.55;;;18.00;82.90;;;;;;5011319;28;20611;-87
2021/08/24 03:21:39;;;;;;;4.68;4.32;;;17.90;83.10;;;;;;5023024;28;20208;-88
2021/08/24 03:24:09;;;;;;;6.10;4.38;;;17.90;83.30;;;;;;5023229;28;20217;-87
2021/08/24 03:26:38;;;;;;;5.03;4.63;;;17.90;83.20;;;;;;5022311;28;20201;-87
2021/08/24 03:29:22;;;;;;;5.57;4.30;;;18.00;83.20;;;;;;5038044;28;20214;-88
2021/08/24 03:31:55;;;;;;;6.20;4.25;;;18.00;82.00;;;;;;5029266;28;20293;-87
2021/08/24 03:34:22;;;;;;;5.35;4.88;;;18.00;82.80;;;;;;5019681;28;20196;-87
2021/08/24 03:36:48;;;;;;;5.38;4.88;;;18.10;81.80;;;;;;5010519;28;20185;-88
2021/08/24 03:39:14;;;;;;;6.15;4.72;;;18.10;82.40;;;;;;5021339;28;20216;-87
2021/08/24 03:41:40;;;;;;;5.15;4.68;;;18.10;81.90;;;;;;5037682;28;20215;-88
2021/08/24 03:44:06;;;;;;;5.55;4.75;;;18.00;81.50;;;;;;5018799;28;20226;-88
2021/08/24 03:46:32;;;;;;;5.57;4.90;;;17.80;81.50;;;;;;5021621;28;20677;-88
2021/08/24 03:48:58;;;;;;;5.22;4.75;;;17.60;83.00;;;;;;5021827;28;20226;-89
2021/08/24 03:51:25;;;;;;;6.90;4.65;;;17.50;83.60;;;;;;5021874;28;20214;-87
2021/08/24 03:53:50;;;;;;;6.03;5.40;;;17.40;83.70;;;;;;5022490;28;20206;-87
2021/08/24 03:56:16;;;;;;;6.17;5.10;;;17.40;84.20;;;;;;5022598;28;20193;-87
2021/08/24 03:58:42;;;;;;;5.38;4.88;;;17.40;84.20;;;;;;5018964;28;20701;-87
2021/08/24 04:01:13;;;;;;;5.03;4.63;;;17.50;84.30;;;;;;5019894;28;20189;-87
2021/08/24 04:03:39;;;;;;;5.35;4.65;;;17.50;83.90;;;;;;5015473;28;20192;-88
2021/08/24 04:06:05;;;;;;;5.57;5.07;;;17.50;84.00;;;;;;5016155;28;20191;-88
2021/08/24 04:08:30;;;;;;;5.45;5.00;;;17.60;83.10;;;;;;5014626;28;20299;-87
2021/08/24 04:10:56;;;;;;;5.95;5.45;;;17.60;83.70;;;;;;5030294;28;20281;-88
2021/08/24 04:13:22;;;;;;;5.47;4.90;;;17.70;82.70;;;;;;5017713;28;20223;-87
2021/08/24 04:15:48;;;;;;;7.13;5.38;;;17.70;83.10;;;;;;5016662;28;20193;-88
2021/08/24 04:18:15;;;;;;;5.85;5.30;;;17.70;82.50;;;;;;5015938;28;20197;-88
2021/08/24 04:20:41;;;;;;;5.95;4.97;;;17.70;82.10;;;;;;5013140;28;21768;-87
2021/08/24 04:23:11;;;;;;;6.50;4.68;;;17.70;81.50;;;;;;5015099;28;20271;-86
2021/08/24 04:25:37;;;;;;;4.63;4.28;;;17.50;82.10;;;;;;5016153;28;20331;-87
2021/08/24 04:28:03;;;;;;;5.47;4.97;;;17.40;82.90;;;;;;5016209;28;20695;-88
2021/08/24 04:30:30;;;;;;;5.10;4.70;;;17.30;83.20;;;;;;5014126;28;20598;-87
2021/08/24 04:32:55;;;;;;;9.65;4.90;;;17.40;83.20;;;;;;5016649;28;20213;-87
2021/08/24 04:35:21;;;;;;;5.75;5.20;;;17.40;83.40;;;;;;5015907;28;20555;-87
2021/08/24 04:37:47;;;;;;;5.10;4.70;;;17.40;82.90;;;;;;5016463;28;20732;-88
2021/08/24 04:40:13;;;;;;;5.75;4.95;;;17.20;83.10;;;;;;5017391;28;20202;-86
2021/08/24 04:42:39;;;;;;;5.83;5.13;;;17.10;83.80;;;;;;5016469;28;20245;-88
2021/08/24 04:45:06;;;;;;;5.70;4.93;;;16.90;84.90;;;;;;5022534;28;20215;-88
2021/08/24 04:47:32;;;;;;;5.93;5.03;;;16.80;85.60;;;;;;5015180;28;20241;-87
2021/08/24 04:49:57;;;;;;;5.50;4.80;;;16.80;85.60;;;;;;5017938;28;20219;-87
2021/08/24 04:52:23;;;;;;;5.47;4.97;;;16.80;86.30;;;;;;5020700;28;20202;-86
2021/08/24 04:54:48;;;;;;;6.17;5.63;;;16.60;85.90;;;;;;5027387;28;20196;-87
2021/08/24 04:57:14;;;;;;;5.80;5.33;;;16.60;86.60;;;;;;5025594;28;20273;-86
2021/08/24 04:59:40;;;;;;;6.30;5.30;;;16.50;86.90;;;;;;5014879;28;20212;-87
2021/08/24 05:02:06;;;;;;;6.27;5.37;;;16.40;87.50;;;;;;5015900;28;20227;-86
2021/08/24 05:04:31;;;;;;;5.53;5.03;;;16.30;87.70;;;;;;5019589;28;20205;-86
2021/08/24 05:06:57;;;;;;;7.33;5.67;;;16.40;87.60;;;;;;5016757;28;20266;-86
2021/08/24 05:09:22;;;;;;;5.87;5.27;;;16.20;88.40;;;;;;5017059;28;20209;-86
2021/08/24 05:11:48;;;;;;;6.53;5.83;;;16.10;89.10;;;;;;5016554;28;20711;-87
2021/08/24 05:14:14;;;;;;;6.77;6.20;;;16.10;89.10;;;;;;5010432;28;20189;-86
2021/08/24 05:16:40;;;;;;;6.83;5.83;;;16.10;89.50;;;;;;5012645;28;20274;-87
2021/08/24 05:19:07;;;;;;;6.20;5.60;;;16.10;89.30;;;;;;5014279;28;20182;-88
2021/08/24 05:21:34;;;;;;;6.30;5.73;;;16.10;89.30;;;;;;5014122;28;20775;-87
2021/08/24 05:24:00;;;;;;;6.47;5.83;;;16.10;89.40;;;;;;5016578;28;20193;-86
2021/08/24 05:26:26;;;;;;;10.00;6.07;;;16.20;88.80;;;;;;5015633;28;20830;-86
2021/08/24 05:28:52;;;;;;;6.67;6.00;;;16.20;88.50;;;;;;5015373;28;20215;-86
2021/08/24 05:31:18;;;;;;;6.47;5.83;;;16.20;89.30;;;;;;5015474;28;20212;-86
2021/08/24 05:33:44;;;;;;;7.30;5.90;;;16.10;89.70;;;;;;5017667;28;20283;-87
2021/08/24 05:36:11;;;;;;;6.80;5.70;;;15.90;90.90;;;;;;5016271;28;20213;-88
2021/08/24 05:38:38;;;;;;;6.57;5.90;;;16.00;91.50;;;;;;5015691;28;20215;-87
2021/08/24 05:41:05;;;;;;;7.67;6.93;;;15.90;91.70;;;;;;5016695;28;20188;-86
2021/08/24 05:43:31;;;;;;;6.80;6.20;;;16.00;91.10;;;;;;5015223;28;20296;-87
2021/08/24 05:46:09;;;;;;;7.40;6.20;;;16.00;91.50;;;;;;5015542;28;20293;-87
2021/08/24 05:48:36;;;;;;;6.70;5.90;;;16.10;91.30;;;;;;4996931;28;20212;-86
2021/08/24 05:51:08;;;;;;;6.60;5.90;;;16.10;91.30;;;;;;5017543;28;20214;-86
2021/08/24 05:53:34;;;;;;;6.40;5.80;;;16.30;90.50;;;;;;5016380;28;20213;-87
2021/08/24 05:55:59;;;;;;;6.50;5.90;;;16.20;90.60;;;;;;5016386;28;20264;-86
2021/08/24 05:58:25;;;;;;;7.20;6.47;;;16.20;90.00;;;;;;5018941;28;20280;-86
2021/08/24 06:00:50;;;;;;;10.53;6.40;;;16.10;90.20;;;;;;5016495;28;20194;-87
2021/08/24 06:03:20;;;;;;;6.93;6.30;;;16.10;90.70;;;;;;5014870;28;20219;-86
2021/08/24 06:05:46;;;;;;;7.47;6.87;;;16.10;90.90;;;;;;5017473;28;20194;-86
2021/08/24 06:08:11;;;;;;;7.10;5.63;;;16.10;90.60;;;;;;5014802;28;20219;-87
2021/08/24 06:10:39;;;;;;;7.20;6.60;;;16.10;90.30;;;;;;5013631;28;20207;-87
2021/08/24 06:13:07;;;;;;;8.87;5.90;;;16.20;90.00;;;;;;5015606;28;20218;-86
2021/08/24 06:15:33;;;;;;;7.07;6.30;;;16.30;89.80;;;;;;5016866;28;20197;-87
2021/08/24 06:17:58;;;;;;;6.53;6.00;;;16.40;89.50;;;;;;5016296;28;20241;-86
2021/08/24 06:20:25;;;;;;;7.43;6.30;;;16.40;89.50;;;;;;5016985;28;20605;-87
2021/08/24 06:22:50;;;;;;;7.33;6.63;;;16.60;89.10;;;;;;5031470;28;20214;-86
2021/08/24 06:25:17;;;;;;;7.00;6.40;;;16.60;88.10;;;;;;5013246;28;20212;-86
2021/08/24 06:27:43;;;;;;;6.87;6.27;;;16.60;88.40;;;;;;5016041;28;20192;-87
2021/08/24 06:30:10;;;;;;;9.43;7.63;;;16.70;88.10;;;;;;5019579;28;20239;-87
2021/08/24 06:32:42;;;;;;;10.27;9.23;;;16.80;88.60;;;;;;5016403;28;20212;-86
2021/08/24 06:35:08;;;;;;;10.27;9.37;;;16.60;89.00;;;;;;5034756;28;20210;-87
2021/08/24 06:37:34;;;;;;;11.67;10.53;;;16.40;90.10;;;;;;5016115;28;20192;-85
2021/08/24 06:40:01;;;;;;;12.53;11.33;;;16.40;90.00;;;;;;5022477;28;20195;-86
2021/08/24 06:42:27;;;;;;;12.77;11.47;;;16.20;90.70;;;;;;5019515;28;20212;-86
2021/08/24 06:44:53;;;;;;;11.60;10.53;;;16.10;90.90;;;;;;5022537;28;20615;-87
2021/08/24 06:47:18;;;;;;;12.10;11.00;;;16.20;91.90;;;;;;5019698;28;20187;-87
2021/08/24 06:49:44;;;;;;;11.23;10.13;;;16.40;90.80;;;;;;5000900;28;20221;-87
2021/08/24 06:52:10;;;;;;;9.93;9.03;;;16.60;89.80;;;;;;5012850;28;20415;-87
2021/08/24 06:54:35;;;;;;;10.53;9.63;;;16.80;88.40;;;;;;5005621;28;20191;-88
2021/08/24 06:57:05;;;;;;;10.20;9.27;;;16.70;88.40;;;;;;5012359;28;20532;-87
2021/08/24 06:59:37;;;;;;;9.77;8.77;;;16.80;87.80;;;;;;5017524;28;20561;-87
2021/08/24 07:02:09;;;;;;;11.30;9.20;;;16.80;87.90;;;;;;5019543;28;20209;-85
2021/08/24 07:04:35;;;;;;;9.07;8.00;;;16.80;87.20;;;;;;5018120;28;20542;-87
2021/08/24 07:09:32;;;;;;;11.17;10.07;;;16.90;87.00;;;;;;5000886;28;20278;-87
2021/08/24 07:11:57;;;;;;;10.83;9.83;;;16.90;87.00;;;;;;5000522;28;20214;-86
2021/08/24 07:14:23;;;;;;;11.03;9.90;;;16.80;87.50;;;;;;4997426;28;20202;-87
2021/08/24 07:16:48;;;;;;;10.80;9.70;;;16.80;87.90;;;;;;4999563;28;20198;-87
2021/08/24 07:19:14;;;;;;;10.40;9.30;;;17.00;88.10;;;;;;4998105;28;20198;-88
2021/08/24 07:21:40;;;;;;;8.67;7.97;;;17.10;86.30;;;;;;4997235;28;20637;-87
2021/08/24 07:24:05;;;;;;;8.70;8.00;;;17.20;84.30;;;;;;4996846;28;20212;-86
2021/08/24 07:26:31;;;;;;;9.13;7.67;;;17.20;83.80;;;;;;4995456;28;20235;-87
2021/08/24 07:28:57;;;;;;;8.60;7.80;;;17.20;83.10;;;;;;4997709;28;20611;-87
2021/08/24 07:31:23;;;;;;;7.40;6.80;;;17.00;83.30;;;;;;4986960;28;20190;-88
2021/08/24 07:33:48;;;;;;;7.73;7.03;;;17.00;83.50;;;;;;4997195;28;20194;-87
2021/08/24 07:36:14;;;;;;;7.53;6.73;;;17.20;84.00;;;;;;5004862;28;20213;-87
2021/08/24 07:38:40;;;;;;;8.30;7.53;;;17.30;83.30;;;;;;5009619;28;20203;-87
2021/08/24 07:41:06;;;;;;;9.13;8.27;;;17.40;82.50;;;;;;4994712;28;20204;-87
2021/08/24 07:43:32;;;;;;;7.60;7.00;;;17.50;82.70;;;;;;5000030;28;20730;-87
2021/08/24 07:45:58;;;;;;;8.83;6.37;;;17.50;82.20;;;;;;5002275;28;20542;-87
2021/08/24 07:48:24;;;;;;;6.27;5.70;;;17.50;80.30;;;;;;4995710;28;20217;-88
2021/08/24 07:50:51;;;;;;;7.40;6.70;;;17.50;80.70;;;;;;4993567;28;20266;-88
2021/08/24 07:53:19;;;;;;;7.07;5.80;;;17.60;80.60;;;;;;4991800;28;24493;-87
2021/08/24 07:55:45;;;;;;;5.93;5.50;;;17.60;80.00;;;;;;4992378;28;20189;-88
2021/08/24 07:58:11;;;;;;;6.17;5.07;;;17.50;79.80;;;;;;4992539;28;20194;-88
2021/08/24 08:00:37;;;;;;;4.60;4.20;;;17.60;78.50;;;;;;4991881;28;20195;-87
2021/08/24 08:03:03;;;;;;;5.00;4.50;;;17.70;76.90;;;;;;4991613;28;20724;-88
2021/08/24 08:05:30;;;;;;;6.13;4.80;;;18.00;76.20;;;;;;4988817;28;20277;-87
2021/08/24 08:07:56;;;;;;;5.23;4.17;;;18.20;76.20;;;;;;4990878;28;20200;-88
2021/08/24 08:10:23;;;;;;;6.60;3.97;;;18.40;75.10;;;;;;4989371;28;20684;-87
2021/08/24 08:12:48;;;;;;;10.43;3.87;;;18.50;74.00;;;;;;4989862;28;20222;-88
2021/08/24 08:15:15;;;;;;;5.00;3.53;;;18.50;72.90;;;;;;5006280;28;20209;-87
2021/08/24 08:17:41;;;;;;;4.10;3.80;;;18.60;71.70;;;;;;4990552;28;20224;-88
2021/08/24 08:20:07;;;;;;;4.23;3.90;;;18.70;71.30;;;;;;4991951;28;20573;-88
2021/08/24 08:22:35;;;;;;;4.13;3.73;;;18.80;71.70;;;;;;4992277;28;20244;-88
2021/08/24 08:25:01;;;;;;;3.95;3.63;;;18.90;72.10;;;;;;4992039;28;20201;-88
2021/08/24 08:27:26;;;;;;;4.05;3.53;;;19.00;71.20;;;;;;4990159;28;20193;-88
2021/08/24 08:29:52;;;;;;;3.88;3.47;;;19.10;70.60;;;;;;4988683;28;20303;-88
2021/08/24 08:32:23;;;;;;;4.03;3.63;;;19.10;70.90;;;;;;4990044;28;20215;-88
2021/08/24 08:34:50;;;;;;;4.33;3.70;;;19.00;71.00;;;;;;4991376;28;20187;-88
2021/08/24 08:37:16;;;;;;;4.10;3.40;;;19.00;69.40;;;;;;4988121;28;20201;-88
2021/08/24 08:39:41;;;;;;;3.88;3.58;;;19.00;69.80;;;;;;4994610;28;20199;-88
2021/08/24 08:42:29;;;;;;;3.83;3.50;;;19.00;68.90;;;;;;4993132;28;20247;-88
2021/08/24 08:45:03;;;;;;;3.75;3.35;;;19.20;67.20;;;;;;4994192;28;20188;-88
2021/08/24 08:47:56;;;;;;;4.80;3.22;;;19.30;68.30;;;;;;4992686;28;20213;-88
2021/08/24 08:50:54;;;;;;;3.75;3.25;;;19.60;66.80;;;;;;4992005;28;20331;-87
2021/08/24 08:54:00;;;;;;;4.30;3.40;;;19.30;67.40;;;;;;4992265;28;20223;-88
2021/08/24 08:56:45;;;;;;;3.95;3.42;;;19.30;68.60;;;;;;4991132;28;20342;-88
2021/08/24 08:59:15;;;;;;;3.75;3.40;;;19.50;67.20;;;;;;4993816;28;20192;-88
2021/08/24 09:02:06;;;;;;;4.15;3.67;;;19.40;67.50;;;;;;4994650;28;20216;-88
2021/08/24 09:04:37;;;;;;;3.33;3.13;;;19.30;68.90;;;;;;4994304;28;20214;-89
2021/08/24 09:07:09;;;;;;;3.47;3.17;;;19.40;68.40;;;;;;4989164;28;20662;-88
2021/08/24 09:09:38;;;;;;;3.58;3.10;;;19.40;68.10;;;;;;4994499;28;20213;-88
2021/08/24 09:12:07;;;;;;;4.32;3.38;;;19.80;67.20;;;;;;4994562;28;20212;-89
2021/08/24 09:14:49;;;;;;;3.85;3.55;;;20.00;66.20;;;;;;4994829;28;20218;-88
2021/08/24 09:17:36;;;;;;;3.85;3.45;;;20.10;65.50;;;;;;4991671;28;20433;-88
2021/08/24 09:20:26;;;;;;;3.97;3.50;;;20.10;65.10;;;;;;5009748;28;20599;-88
2021/08/24 09:22:52;;;;;;;3.97;3.67;;;20.30;63.70;;;;;;4991242;28;20213;-88
2021/08/24 09:25:25;;;;;;;3.58;3.28;;;20.50;63.90;;;;;;5004672;28;20178;-87
2021/08/24 09:28:12;;;;;;;3.90;3.50;;;20.50;63.30;;;;;;5010655;28;20293;-88
2021/08/24 09:30:42;;;;;;;6.35;3.50;;;20.30;64.10;;;;;;4989817;28;20190;-87
2021/08/24 09:33:11;;;;;;;4.53;3.60;;;20.30;64.40;;;;;;4993665;28;20228;-88
2021/08/24 09:35:43;;;;;;;4.13;3.53;;;20.40;64.00;;;;;;4992509;28;20290;-88
2021/08/24 09:38:45;;;;;;;3.38;3.08;;;20.50;62.10;;;;;;4992779;28;20186;-88
2021/08/24 09:41:20;;;;;;;3.53;3.00;;;20.60;60.60;;;;;;4990007;28;20186;-87
2021/08/24 09:43:47;;;;;;;3.85;3.55;;;20.80;61.60;;;;;;4992073;28;20392;-88
2021/08/24 09:46:16;;;;;;;3.60;2.70;;;20.90;62.20;;;;;;4992051;28;20182;-88
2021/08/24 09:48:55;;;;;;;3.40;3.10;;;20.70;61.50;;;;;;4993756;28;20256;-88
2021/08/24 09:51:46;;;;;;;3.60;3.20;;;20.80;61.00;;;;;;4994032;28;20286;-88
2021/08/24 09:54:37;;;;;;;6.25;3.47;;;21.20;59.60;;;;;;4991306;28;20657;-88
2021/08/24 09:57:16;;;;;;;4.60;2.90;;;21.50;58.30;;;;;;4994829;28;20190;-88
2021/08/24 09:59:56;;;;;;;4.47;3.40;;;21.50;58.80;;;;;;4989844;28;20229;-88
2021/08/24 10:02:35;;;;;;;3.33;3.03;;;21.50;58.60;;;;;;4993155;28;20260;-88
2021/08/24 10:05:01;;;;;;;5.18;3.10;;;21.80;58.80;;;;;;4989710;28;20744;-88
2021/08/24 10:07:40;;;;;;;3.50;3.20;;;22.20;56.50;;;;;;4996768;28;20674;-88
2021/08/24 10:10:28;;;;;;;3.75;3.45;;;22.30;57.00;;;;;;4996038;28;20621;-88
2021/08/24 10:12:57;;;;;;;4.03;3.63;;;22.60;56.50;;;;;;4996163;28;20287;-87
2021/08/24 10:15:33;;;;;;;3.72;3.30;;;22.80;56.00;;;;;;4995103;28;20327;-88
2021/08/24 10:18:10;;;;;;;3.80;2.88;;;22.90;55.20;;;;;;4997067;28;20262;-88
2021/08/24 10:20:49;;;;;;;4.03;3.63;;;22.70;55.40;;;;;;4995638;28;20383;-88
2021/08/24 10:23:23;;;;;;;5.43;3.33;;;22.60;56.00;;;;;;4996436;28;20205;-87
2021/08/24 10:25:55;;;;;;;3.72;3.13;;;22.60;55.50;;;;;;5011496;28;20224;-87
2021/08/24 10:28:46;;;;;;;4.10;3.60;;;22.30;55.80;;;;;;5007168;28;20205;-88
2021/08/24 10:31:34;;;;;;;4.32;3.10;;;22.30;56.00;;;;;;4983929;28;20232;-88
2021/08/24 10:34:27;;;;;;;4.18;2.83;;;22.10;56.60;;;;;;5008746;28;20189;-87
2021/08/24 10:37:11;;;;;;;3.58;3.22;;;22.00;59.00;;;;;;5012344;28;20260;-88
2021/08/24 10:39:37;;;;;;;4.50;3.00;;;21.80;58.20;;;;;;4996094;28;20180;-87
2021/08/24 10:42:15;;;;;;;4.85;3.13;;;21.70;59.00;;;;;;4994549;28;20242;-88
2021/08/24 10:44:53;;;;;;;3.47;3.17;;;21.50;58.60;;;;;;4995027;28;20187;-88
2021/08/24 10:47:29;;;;;;;3.97;3.58;;;21.50;59.20;;;;;;5013227;28;20201;-87
2021/08/24 10:50:00;;;;;;;3.65;3.35;;;21.40;59.30;;;;;;4998129;28;20218;-87
2021/08/24 10:52:51;;;;;;;3.67;3.38;;;21.40;59.80;;;;;;4995212;28;20211;-87
2021/08/24 10:55:31;;;;;;;3.10;2.90;;;21.60;59.40;;;;;;4996274;28;20199;-88
2021/08/24 10:58:10;;;;;;;2.90;2.70;;;21.60;58.10;;;;;;4979416;28;20198;-88
2021/08/24 11:00:48;;;;;;;3.72;3.10;;;21.80;57.90;;;;;;5000367;28;20181;-88
2021/08/24 11:03:47;;;;;;;4.50;3.47;;;21.80;58.40;;;;;;5000690;28;20221;-87
2021/08/24 11:06:41;;;;;;;3.60;3.30;;;21.90;58.10;;;;;;4999445;28;20210;-88
2021/08/24 11:09:19;;;;;;;3.78;3.47;;;22.00;58.40;;;;;;4998853;28;20252;-88
2021/08/24 11:11:56;;;;;;;3.70;3.28;;;22.10;58.10;;;;;;5008266;28;20210;-87
2021/08/24 11:14:48;;;;;;;3.55;3.25;;;22.00;58.40;;;;;;4998051;28;20183;-88
2021/08/24 11:17:33;;;;;;;3.42;3.13;;;22.00;59.00;;;;;;5002494;28;20723;-87
2021/08/24 11:20:04;;;;;;;3.75;3.45;;;22.10;58.20;;;;;;5000779;28;20201;-88
2021/08/24 11:22:36;;;;;;;4.40;4.00;;;21.80;59.40;;;;;;5001539;28;20220;-88
2021/08/24 11:25:20;;;;;;;3.53;3.22;;;21.80;59.80;;;;;;5017466;28;20190;-89
2021/08/24 11:28:03;;;;;;;3.95;3.33;;;22.10;59.10;;;;;;5000699;28;20656;-87
2021/08/24 11:30:30;;;;;;;4.30;3.85;;;22.20;59.10;;;;;;4996142;28;20202;-88
2021/08/24 11:33:05;;;;;;;4.22;3.90;;;22.40;58.80;;;;;;4995603;28;20220;-88
2021/08/24 11:35:43;;;;;;;6.95;3.75;;;22.70;58.10;;;;;;4997009;28;20174;-88
2021/08/24 11:38:18;;;;;;;4.28;3.88;;;22.60;58.30;;;;;;4997928;28;20270;-88
2021/08/24 11:40:52;;;;;;;4.68;3.70;;;22.60;57.50;;;;;;4999506;28;20941;-88
2021/08/24 11:43:27;;;;;;;4.45;3.95;;;22.50;58.50;;;;;;4998788;28;20228;-88
2021/08/24 11:45:54;;;;;;;3.92;3.63;;;22.40;58.60;;;;;;4995991;28;20188;-88
2021/08/24 11:48:25;;;;;;;5.95;3.65;;;22.30;58.90;;;;;;5001391;28;20225;-88
2021/08/24 11:51:04;;;;;;;5.80;3.80;;;22.60;58.00;;;;;;4997129;28;20194;-88
2021/08/24 11:53:45;;;;;;;3.85;3.53;;;22.70;57.40;;;;;;4997732;28;20206;-87
2021/08/24 11:56:58;;;;;;;5.40;4.90;;;22.70;57.90;;;;;;4997720;28;20200;-88
2021/08/24 11:59:44;;;;;;;4.43;4.03;;;23.00;57.80;;;;;;4996460;28;20288;-89
2021/08/24 12:02:20;;;;;;;4.30;3.90;;;23.40;56.90;;;;;;4996061;28;20920;-87
2021/08/24 12:04:48;;;;;;;4.65;4.25;;;23.60;57.00;;;;;;5004630;28;20194;-88
2021/08/24 12:07:33;;;;;;;4.05;3.75;;;23.70;55.00;;;;;;5012610;28;20214;-87
2021/08/24 12:10:04;;;;;;;4.18;3.80;;;23.30;55.60;;;;;;5028706;28;20248;-87
2021/08/24 12:12:30;;;;;;;4.65;3.88;;;23.10;56.90;;;;;;5012432;28;20210;-87
2021/08/24 12:15:07;;;;;;;4.95;4.45;;;23.00;56.60;;;;;;5017616;28;20189;-87
2021/08/24 12:17:36;;;;;;;6.20;4.28;;;22.40;57.90;;;;;;5011724;28;20188;-88
2021/08/24 12:20:14;;;;;;;4.47;4.10;;;22.30;59.10;;;;;;5006429;28;20222;-88
2021/08/24 12:22:52;;;;;;;4.85;4.20;;;22.20;58.90;;;;;;5006306;28;20217;-87
2021/08/24 12:25:33;;;;;;;5.32;4.47;;;22.00;59.50;;;;;;5004073;28;20235;-88
2021/08/24 12:28:07;;;;;;;4.63;4.22;;;22.00;60.00;;;;;;5006193;28;20198;-88
2021/08/24 12:30:54;;;;;;;5.63;4.15;;;22.20;59.90;;;;;;4993859;28;20201;-88
2021/08/24 12:33:47;;;;;;;4.95;4.25;;;22.00;60.00;;;;;;4996852;28;20337;-88
2021/08/24 12:36:21;;;;;;;5.45;4.55;;;22.10;60.70;;;;;;4995775;28;20683;-88
2021/08/24 12:39:01;;;;;;;5.00;4.30;;;22.10;60.30;;;;;;4995091;28;20225;-88
2021/08/24 12:41:35;;;;;;;5.45;4.95;;;22.10;60.60;;;;;;4995699;28;20468;-88
2021/08/24 12:44:13;;;;;;;5.50;4.60;;;22.20;59.20;;;;;;4996356;28;20189;-89
2021/08/24 12:46:42;;;;;;;4.55;4.07;;;22.10;59.70;;;;;;4994257;28;20193;-88
2021/08/24 12:49:17;;;;;;;4.75;4.25;;;21.80;60.00;;;;;;4992496;28;20223;-88
2021/08/24 12:52:14;;;;;;;4.93;4.28;;;21.80;61.20;;;;;;4995463;28;20205;-87
2021/08/24 12:54:58;;;;;;;5.00;4.50;;;21.90;61.50;;;;;;4994415;28;20649;-88
2021/08/24 12:57:24;;;;;;;5.18;4.18;;;21.90;60.40;;;;;;4991411;28;20196;-88
2021/08/24 12:59:52;;;;;;;4.40;4.03;;;21.90;60.10;;;;;;4989046;28;20197;-88
2021/08/24 13:02:26;;;;;;;4.60;4.20;;;21.90;60.60;;;;;;4993407;28;20221;-88
2021/08/24 13:05:01;;;;;;;5.10;4.18;;;21.80;61.20;;;;;;4993331;28;20237;-88
2021/08/24 13:07:41;;;;;;;4.90;4.50;;;21.80;60.90;;;;;;4990184;28;20576;-87
2021/08/24 13:10:15;;;;;;;6.22;4.97;;;21.90;59.80;;;;;;4995882;28;20216;-88
2021/08/24 13:12:43;;;;;;;6.68;4.80;;;21.80;60.50;;;;;;4995723;28;20205;-87
2021/08/24 13:15:30;;;;;;;4.60;4.20;;;21.70;60.40;;;;;;5009428;28;20187;-87